sensor_id;sensor_type;location;lat;lon;timestamp;temperature;humidity
41628;DHT22;27321;50.816;6.054;2022-10-16T00:01:08;15.40;79.90
41628;DHT22;27321;50.816;6.054;2022-10-16T00:04:12;15.40;79.70
41628;DHT22;27321;50.816;6.054;2022-10-16T00:07:13;15.30;79.60
41628;DHT22;27321;50.816;6.054;2022-10-16T00:10:14;15.30;79.50
41628;DHT22;27321;50.816;6.054;2022-10-16T00:13:15;15.30;79.30
41628;DHT22;27321;50.816;6.054;2022-10-16T00:16:18;15.30;79.10
41628;DHT22;27321;50.816;6.054;2022-10-16T00:19:19;15.30;79.10
41628;DHT22;27321;50.816;6.054;2022-10-16T00:22:20;15.30;79.10
41628;DHT22;27321;50.816;6.054;2022-10-16T00:25:24;15.30;79.10
41628;DHT22;27321;50.816;6.054;2022-10-16T00:28:25;15.30;79.20
41628;DHT22;27321;50.816;6.054;2022-10-16T00:31:26;15.30;79.20
41628;DHT22;27321;50.816;6.054;2022-10-16T00:34:27;15.30;78.70
41628;DHT22;27321;50.816;6.054;2022-10-16T00:37:28;15.30;78.80
41628;DHT22;27321;50.816;6.054;2022-10-16T00:40:29;15.30;78.70
41628;DHT22;27321;50.816;6.054;2022-10-16T00:43:33;15.30;78.60
41628;DHT22;27321;50.816;6.054;2022-10-16T00:49:39;15.30;78.60
41628;DHT22;27321;50.816;6.054;2022-10-16T00:52:41;15.20;78.50
41628;DHT22;27321;50.816;6.054;2022-10-16T00:55:44;15.20;78.20
41628;DHT22;27321;50.816;6.054;2022-10-16T00:58:46;15.20;78.10
41628;DHT22;27321;50.816;6.054;2022-10-16T01:01:47;15.20;78.10
41628;DHT22;27321;50.816;6.054;2022-10-16T01:04:52;15.20;77.90
41628;DHT22;27321;50.816;6.054;2022-10-16T01:10:57;15.10;77.80
41628;DHT22;27321;50.816;6.054;2022-10-16T01:14:07;15.10;77.40
41628;DHT22;27321;50.816;6.054;2022-10-16T01:27:01;15.10;77.10
41628;DHT22;27321;50.816;6.054;2022-10-16T01:33:28;15.10;77.00
41628;DHT22;27321;50.816;6.054;2022-10-16T01:36:35;15.10;77.10
41628;DHT22;27321;50.816;6.054;2022-10-16T01:39:44;15.00;77.00
41628;DHT22;27321;50.816;6.054;2022-10-16T01:42:48;15.00;77.20
41628;DHT22;27321;50.816;6.054;2022-10-16T01:45:56;15.10;76.90
41628;DHT22;27321;50.816;6.054;2022-10-16T01:48:57;15.10;76.60
41628;DHT22;27321;50.816;6.054;2022-10-16T01:52:02;15.00;76.70
41628;DHT22;27321;50.816;6.054;2022-10-16T01:55:05;15.00;76.70
41628;DHT22;27321;50.816;6.054;2022-10-16T01:58:08;15.00;76.70
41628;DHT22;27321;50.816;6.054;2022-10-16T02:01:10;15.00;76.50
41628;DHT22;27321;50.816;6.054;2022-10-16T02:04:17;15.00;76.80
41628;DHT22;27321;50.816;6.054;2022-10-16T02:07:22;15.10;76.90
41628;DHT22;27321;50.816;6.054;2022-10-16T02:10:23;15.00;76.90
41628;DHT22;27321;50.816;6.054;2022-10-16T02:13:42;15.00;77.10
41628;DHT22;27321;50.816;6.054;2022-10-16T02:16:46;15.10;77.40
41628;DHT22;27321;50.816;6.054;2022-10-16T02:19:47;15.10;77.20
41628;DHT22;27321;50.816;6.054;2022-10-16T02:22:49;15.00;77.20
41628;DHT22;27321;50.816;6.054;2022-10-16T02:25:51;15.00;77.30
41628;DHT22;27321;50.816;6.054;2022-10-16T02:28:54;15.00;77.60
41628;DHT22;27321;50.816;6.054;2022-10-16T02:31:58;15.00;77.50
41628;DHT22;27321;50.816;6.054;2022-10-16T02:35:01;15.00;77.80
41628;DHT22;27321;50.816;6.054;2022-10-16T02:38:02;15.00;77.60
41628;DHT22;27321;50.816;6.054;2022-10-16T02:41:04;14.90;77.80
41628;DHT22;27321;50.816;6.054;2022-10-16T02:44:05;14.90;78.10
41628;DHT22;27321;50.816;6.054;2022-10-16T02:47:06;14.90;78.10
41628;DHT22;27321;50.816;6.054;2022-10-16T02:50:07;14.90;78.20
41628;DHT22;27321;50.816;6.054;2022-10-16T02:53:08;14.90;78.40
41628;DHT22;27321;50.816;6.054;2022-10-16T02:56:09;14.90;78.70
41628;DHT22;27321;50.816;6.054;2022-10-16T02:59:17;14.90;78.60
41628;DHT22;27321;50.816;6.054;2022-10-16T03:02:20;14.90;78.80
41628;DHT22;27321;50.816;6.054;2022-10-16T03:05:21;14.90;78.80
41628;DHT22;27321;50.816;6.054;2022-10-16T03:08:22;14.90;78.90
41628;DHT22;27321;50.816;6.054;2022-10-16T03:11:25;14.90;78.90
41628;DHT22;27321;50.816;6.054;2022-10-16T03:14:26;14.80;79.20
41628;DHT22;27321;50.816;6.054;2022-10-16T03:17:27;14.80;79.30
41628;DHT22;27321;50.816;6.054;2022-10-16T03:20:31;14.80;79.40
41628;DHT22;27321;50.816;6.054;2022-10-16T03:23:32;14.90;79.40
41628;DHT22;27321;50.816;6.054;2022-10-16T03:26:33;14.90;79.40
41628;DHT22;27321;50.816;6.054;2022-10-16T03:29:34;14.90;79.50
41628;DHT22;27321;50.816;6.054;2022-10-16T03:32:35;14.80;79.40
41628;DHT22;27321;50.816;6.054;2022-10-16T03:35:36;14.80;79.80
41628;DHT22;27321;50.816;6.054;2022-10-16T03:38:37;14.80;79.70
41628;DHT22;27321;50.816;6.054;2022-10-16T03:41:38;14.80;79.80
41628;DHT22;27321;50.816;6.054;2022-10-16T03:44:39;14.70;80.00
41628;DHT22;27321;50.816;6.054;2022-10-16T03:47:40;14.70;80.10
41628;DHT22;27321;50.816;6.054;2022-10-16T03:50:41;14.70;80.00
41628;DHT22;27321;50.816;6.054;2022-10-16T03:53:42;14.70;80.30
41628;DHT22;27321;50.816;6.054;2022-10-16T03:56:43;14.70;80.20
41628;DHT22;27321;50.816;6.054;2022-10-16T03:59:44;14.70;80.30
41628;DHT22;27321;50.816;6.054;2022-10-16T04:02:45;14.60;80.20
41628;DHT22;27321;50.816;6.054;2022-10-16T04:05:46;14.70;80.40
41628;DHT22;27321;50.816;6.054;2022-10-16T04:08:47;14.70;80.30
41628;DHT22;27321;50.816;6.054;2022-10-16T04:11:48;14.60;80.50
41628;DHT22;27321;50.816;6.054;2022-10-16T04:14:49;14.70;80.40
41628;DHT22;27321;50.816;6.054;2022-10-16T04:17:50;14.70;80.40
41628;DHT22;27321;50.816;6.054;2022-10-16T04:20:52;14.70;80.40
41628;DHT22;27321;50.816;6.054;2022-10-16T04:23:52;14.60;80.40
41628;DHT22;27321;50.816;6.054;2022-10-16T04:26:53;14.60;80.40
41628;DHT22;27321;50.816;6.054;2022-10-16T04:29:54;14.60;80.50
41628;DHT22;27321;50.816;6.054;2022-10-16T04:32:55;14.60;80.60
41628;DHT22;27321;50.816;6.054;2022-10-16T04:36:00;14.60;80.40
41628;DHT22;27321;50.816;6.054;2022-10-16T04:39:02;14.60;80.70
41628;DHT22;27321;50.816;6.054;2022-10-16T04:42:03;14.60;80.70
41628;DHT22;27321;50.816;6.054;2022-10-16T04:45:05;14.60;80.60
41628;DHT22;27321;50.816;6.054;2022-10-16T04:48:06;14.50;80.50
41628;DHT22;27321;50.816;6.054;2022-10-16T04:51:07;14.60;80.40
41628;DHT22;27321;50.816;6.054;2022-10-16T04:54:09;14.50;80.60
41628;DHT22;27321;50.816;6.054;2022-10-16T04:57:10;14.50;80.90
41628;DHT22;27321;50.816;6.054;2022-10-16T05:00:11;14.60;81.00
41628;DHT22;27321;50.816;6.054;2022-10-16T05:03:16;14.60;80.80
41628;DHT22;27321;50.816;6.054;2022-10-16T05:06:17;14.60;80.70
41628;DHT22;27321;50.816;6.054;2022-10-16T05:09:17;14.60;80.80
41628;DHT22;27321;50.816;6.054;2022-10-16T05:12:18;14.60;80.80
41628;DHT22;27321;50.816;6.054;2022-10-16T05:15:19;14.60;80.60
41628;DHT22;27321;50.816;6.054;2022-10-16T05:18:20;14.60;80.60
41628;DHT22;27321;50.816;6.054;2022-10-16T05:24:49;14.60;80.70
41628;DHT22;27321;50.816;6.054;2022-10-16T05:27:50;14.60;80.80
41628;DHT22;27321;50.816;6.054;2022-10-16T05:30:51;14.60;80.80
41628;DHT22;27321;50.816;6.054;2022-10-16T05:33:52;14.60;80.90
41628;DHT22;27321;50.816;6.054;2022-10-16T05:36:52;14.60;81.10
41628;DHT22;27321;50.816;6.054;2022-10-16T05:39:53;14.60;81.00
41628;DHT22;27321;50.816;6.054;2022-10-16T05:42:56;14.60;81.10
41628;DHT22;27321;50.816;6.054;2022-10-16T05:45:57;14.60;81.10
41628;DHT22;27321;50.816;6.054;2022-10-16T05:49:00;14.60;81.00
41628;DHT22;27321;50.816;6.054;2022-10-16T05:52:01;14.60;81.10
41628;DHT22;27321;50.816;6.054;2022-10-16T05:55:03;14.60;81.00
41628;DHT22;27321;50.816;6.054;2022-10-16T05:58:04;14.60;81.10
41628;DHT22;27321;50.816;6.054;2022-10-16T06:01:06;14.50;81.10
41628;DHT22;27321;50.816;6.054;2022-10-16T06:04:10;14.60;81.20
41628;DHT22;27321;50.816;6.054;2022-10-16T06:07:11;14.50;81.20
41628;DHT22;27321;50.816;6.054;2022-10-16T06:10:12;14.50;81.30
41628;DHT22;27321;50.816;6.054;2022-10-16T06:13:13;14.50;81.40
41628;DHT22;27321;50.816;6.054;2022-10-16T06:16:14;14.50;81.40
41628;DHT22;27321;50.816;6.054;2022-10-16T06:19:15;14.50;81.40
41628;DHT22;27321;50.816;6.054;2022-10-16T06:22:20;14.60;81.40
41628;DHT22;27321;50.816;6.054;2022-10-16T06:25:21;14.50;81.40
41628;DHT22;27321;50.816;6.054;2022-10-16T06:28:22;14.60;81.40
41628;DHT22;27321;50.816;6.054;2022-10-16T06:31:23;14.60;81.60
41628;DHT22;27321;50.816;6.054;2022-10-16T06:34:27;14.60;81.70
41628;DHT22;27321;50.816;6.054;2022-10-16T06:37:28;14.60;81.90
41628;DHT22;27321;50.816;6.054;2022-10-16T06:40:29;14.60;81.80
41628;DHT22;27321;50.816;6.054;2022-10-16T06:43:31;14.60;81.90
41628;DHT22;27321;50.816;6.054;2022-10-16T06:46:32;14.60;82.00
41628;DHT22;27321;50.816;6.054;2022-10-16T06:49:33;14.60;82.10
41628;DHT22;27321;50.816;6.054;2022-10-16T06:52:34;14.60;82.20
41628;DHT22;27321;50.816;6.054;2022-10-16T06:55:36;14.60;82.30
41628;DHT22;27321;50.816;6.054;2022-10-16T06:58:37;14.50;82.30
41628;DHT22;27321;50.816;6.054;2022-10-16T07:01:38;14.60;82.40
41628;DHT22;27321;50.816;6.054;2022-10-16T07:04:40;14.50;82.40
41628;DHT22;27321;50.816;6.054;2022-10-16T07:07:41;14.60;82.30
41628;DHT22;27321;50.816;6.054;2022-10-16T07:10:43;14.60;82.50
41628;DHT22;27321;50.816;6.054;2022-10-16T07:13:44;14.60;82.40
41628;DHT22;27321;50.816;6.054;2022-10-16T07:16:46;14.60;82.30
41628;DHT22;27321;50.816;6.054;2022-10-16T07:19:48;14.60;82.10
41628;DHT22;27321;50.816;6.054;2022-10-16T07:22:49;14.60;82.00
41628;DHT22;27321;50.816;6.054;2022-10-16T07:25:53;14.60;81.90
41628;DHT22;27321;50.816;6.054;2022-10-16T07:28:55;14.60;81.90
41628;DHT22;27321;50.816;6.054;2022-10-16T07:31:57;14.70;81.70
41628;DHT22;27321;50.816;6.054;2022-10-16T07:34:58;14.70;81.70
41628;DHT22;27321;50.816;6.054;2022-10-16T07:37:58;14.80;81.40
41628;DHT22;27321;50.816;6.054;2022-10-16T07:41:03;14.80;81.40
41628;DHT22;27321;50.816;6.054;2022-10-16T07:44:05;14.80;81.20
41628;DHT22;27321;50.816;6.054;2022-10-16T07:47:07;14.90;81.20
41628;DHT22;27321;50.816;6.054;2022-10-16T07:50:08;14.90;81.10
41628;DHT22;27321;50.816;6.054;2022-10-16T07:53:09;15.00;80.80
41628;DHT22;27321;50.816;6.054;2022-10-16T07:56:10;15.00;81.10
41628;DHT22;27321;50.816;6.054;2022-10-16T07:59:12;15.00;80.70
41628;DHT22;27321;50.816;6.054;2022-10-16T08:02:13;15.10;80.80
41628;DHT22;27321;50.816;6.054;2022-10-16T08:05:15;15.10;80.70
41628;DHT22;27321;50.816;6.054;2022-10-16T08:08:17;15.20;80.70
41628;DHT22;27321;50.816;6.054;2022-10-16T08:11:18;15.20;80.20
41628;DHT22;27321;50.816;6.054;2022-10-16T08:14:20;15.20;79.90
41628;DHT22;27321;50.816;6.054;2022-10-16T08:17:21;15.30;79.80
41628;DHT22;27321;50.816;6.054;2022-10-16T08:20:22;15.30;79.60
41628;DHT22;27321;50.816;6.054;2022-10-16T08:23:23;15.30;79.40
41628;DHT22;27321;50.816;6.054;2022-10-16T08:26:26;15.40;79.00
41628;DHT22;27321;50.816;6.054;2022-10-16T08:29:27;15.40;79.00
41628;DHT22;27321;50.816;6.054;2022-10-16T08:32:28;15.40;78.80
41628;DHT22;27321;50.816;6.054;2022-10-16T08:35:29;15.50;78.50
41628;DHT22;27321;50.816;6.054;2022-10-16T08:38:30;15.50;78.50
41628;DHT22;27321;50.816;6.054;2022-10-16T08:48:21;15.60;78.70
41628;DHT22;27321;50.816;6.054;2022-10-16T08:51:25;15.70;78.40
41628;DHT22;27321;50.816;6.054;2022-10-16T08:54:35;15.70;78.30
41628;DHT22;27321;50.816;6.054;2022-10-16T08:57:41;15.80;78.20
41628;DHT22;27321;50.816;6.054;2022-10-16T09:00:42;15.80;77.90
41628;DHT22;27321;50.816;6.054;2022-10-16T09:07:15;16.00;77.60
41628;DHT22;27321;50.816;6.054;2022-10-16T09:14:29;16.00;77.00
41628;DHT22;27321;50.816;6.054;2022-10-16T09:17:34;16.10;77.20
41628;DHT22;27321;50.816;6.054;2022-10-16T09:24:07;16.20;76.00
41628;DHT22;27321;50.816;6.054;2022-10-16T09:27:12;16.20;75.90
41628;DHT22;27321;50.816;6.054;2022-10-16T09:30:17;16.20;75.20
41628;DHT22;27321;50.816;6.054;2022-10-16T09:33:21;16.20;75.30
41628;DHT22;27321;50.816;6.054;2022-10-16T09:36:25;16.30;75.70
41628;DHT22;27321;50.816;6.054;2022-10-16T09:39:26;16.30;75.60
41628;DHT22;27321;50.816;6.054;2022-10-16T09:42:30;16.30;75.10
41628;DHT22;27321;50.816;6.054;2022-10-16T09:45:33;16.40;75.30
41628;DHT22;27321;50.816;6.054;2022-10-16T09:48:38;16.50;75.10
41628;DHT22;27321;50.816;6.054;2022-10-16T09:51:44;16.50;74.80
41628;DHT22;27321;50.816;6.054;2022-10-16T09:54:49;16.50;74.40
41628;DHT22;27321;50.816;6.054;2022-10-16T09:57:51;16.50;74.20
41628;DHT22;27321;50.816;6.054;2022-10-16T10:00:53;16.60;74.00
41628;DHT22;27321;50.816;6.054;2022-10-16T10:03:55;16.70;73.10
41628;DHT22;27321;50.816;6.054;2022-10-16T10:07:01;16.80;73.10
41628;DHT22;27321;50.816;6.054;2022-10-16T10:10:03;16.80;72.80
41628;DHT22;27321;50.816;6.054;2022-10-16T10:13:14;16.90;73.40
41628;DHT22;27321;50.816;6.054;2022-10-16T10:16:26;16.90;73.30
41628;DHT22;27321;50.816;6.054;2022-10-16T10:19:27;16.90;73.20
41628;DHT22;27321;50.816;6.054;2022-10-16T10:22:41;16.80;73.10
41628;DHT22;27321;50.816;6.054;2022-10-16T10:29:05;16.70;72.40
41628;DHT22;27321;50.816;6.054;2022-10-16T10:32:14;16.70;73.20
41628;DHT22;27321;50.816;6.054;2022-10-16T10:38:54;16.70;73.20
41628;DHT22;27321;50.816;6.054;2022-10-16T10:48:22;16.70;74.20
41628;DHT22;27321;50.816;6.054;2022-10-16T10:58:19;16.90;74.00
41628;DHT22;27321;50.816;6.054;2022-10-16T11:05:47;17.00;74.30
41628;DHT22;27321;50.816;6.054;2022-10-16T11:08:48;17.10;73.70
41628;DHT22;27321;50.816;6.054;2022-10-16T11:15:18;17.30;73.00
41628;DHT22;27321;50.816;6.054;2022-10-16T11:18:33;17.40;72.50
41628;DHT22;27321;50.816;6.054;2022-10-16T11:21:42;17.50;72.00
41628;DHT22;27321;50.816;6.054;2022-10-16T11:25:04;17.60;71.70
41628;DHT22;27321;50.816;6.054;2022-10-16T11:31:36;17.80;70.50
41628;DHT22;27321;50.816;6.054;2022-10-16T11:34:47;18.00;70.50
41628;DHT22;27321;50.816;6.054;2022-10-16T11:37:51;17.90;68.90
41628;DHT22;27321;50.816;6.054;2022-10-16T11:41:47;17.90;69.30
41628;DHT22;27321;50.816;6.054;2022-10-16T11:48:15;18.00;68.50
41628;DHT22;27321;50.816;6.054;2022-10-16T11:54:48;18.00;68.80
41628;DHT22;27321;50.816;6.054;2022-10-16T11:57:54;18.10;68.70
41628;DHT22;27321;50.816;6.054;2022-10-16T12:04:18;18.00;67.90
41628;DHT22;27321;50.816;6.054;2022-10-16T12:07:46;18.00;67.20
41628;DHT22;27321;50.816;6.054;2022-10-16T12:10:51;18.10;67.30
41628;DHT22;27321;50.816;6.054;2022-10-16T12:20:22;18.40;67.50
41628;DHT22;27321;50.816;6.054;2022-10-16T12:23:32;18.50;67.80
41628;DHT22;27321;50.816;6.054;2022-10-16T12:26:54;18.50;67.90
41628;DHT22;27321;50.816;6.054;2022-10-16T12:29:56;18.60;67.40
41628;DHT22;27321;50.816;6.054;2022-10-16T12:33:00;18.60;66.60
41628;DHT22;27321;50.816;6.054;2022-10-16T12:36:16;18.80;67.10
41628;DHT22;27321;50.816;6.054;2022-10-16T12:39:35;18.80;66.50
41628;DHT22;27321;50.816;6.054;2022-10-16T12:42:37;18.80;66.80
41628;DHT22;27321;50.816;6.054;2022-10-16T12:45:38;18.90;65.70
41628;DHT22;27321;50.816;6.054;2022-10-16T12:48:40;18.90;65.80
41628;DHT22;27321;50.816;6.054;2022-10-16T12:51:42;18.90;65.90
41628;DHT22;27321;50.816;6.054;2022-10-16T12:54:43;18.90;65.90
41628;DHT22;27321;50.816;6.054;2022-10-16T13:18:11;18.60;66.60
41628;DHT22;27321;50.816;6.054;2022-10-16T13:21:33;18.60;67.20
41628;DHT22;27321;50.816;6.054;2022-10-16T13:24:54;18.60;67.20
41628;DHT22;27321;50.816;6.054;2022-10-16T13:28:04;18.60;67.10
41628;DHT22;27321;50.816;6.054;2022-10-16T13:31:20;18.70;67.70
41628;DHT22;27321;50.816;6.054;2022-10-16T13:34:24;18.80;67.10
41628;DHT22;27321;50.816;6.054;2022-10-16T13:37:25;19.00;67.20
41628;DHT22;27321;50.816;6.054;2022-10-16T13:40:27;19.10;66.50
41628;DHT22;27321;50.816;6.054;2022-10-16T13:46:37;19.20;66.50
41628;DHT22;27321;50.816;6.054;2022-10-16T13:49:41;19.30;66.50
41628;DHT22;27321;50.816;6.054;2022-10-16T13:52:42;19.30;66.60
41628;DHT22;27321;50.816;6.054;2022-10-16T13:55:43;19.30;66.30
41628;DHT22;27321;50.816;6.054;2022-10-16T13:58:44;19.20;66.20
41628;DHT22;27321;50.816;6.054;2022-10-16T14:01:45;19.10;67.30
41628;DHT22;27321;50.816;6.054;2022-10-16T14:04:46;19.00;67.40
41628;DHT22;27321;50.816;6.054;2022-10-16T14:07:49;19.00;67.70
41628;DHT22;27321;50.816;6.054;2022-10-16T14:10:56;19.00;67.90
41628;DHT22;27321;50.816;6.054;2022-10-16T14:13:59;18.90;68.40
41628;DHT22;27321;50.816;6.054;2022-10-16T14:17:00;18.90;68.00
41628;DHT22;27321;50.816;6.054;2022-10-16T14:20:04;18.90;68.30
41628;DHT22;27321;50.816;6.054;2022-10-16T14:23:52;18.90;68.60
41628;DHT22;27321;50.816;6.054;2022-10-16T14:26:42;19.00;68.90
41628;DHT22;27321;50.816;6.054;2022-10-16T14:29:44;19.00;68.80
41628;DHT22;27321;50.816;6.054;2022-10-16T14:36:06;19.10;69.20
41628;DHT22;27321;50.816;6.054;2022-10-16T14:39:19;19.10;69.30
41628;DHT22;27321;50.816;6.054;2022-10-16T14:42:27;19.10;69.60
41628;DHT22;27321;50.816;6.054;2022-10-16T14:45:35;19.10;69.50
41628;DHT22;27321;50.816;6.054;2022-10-16T14:48:36;19.10;69.60
41628;DHT22;27321;50.816;6.054;2022-10-16T14:51:42;19.10;70.00
41628;DHT22;27321;50.816;6.054;2022-10-16T14:54:50;19.10;70.30
41628;DHT22;27321;50.816;6.054;2022-10-16T15:02:42;19.00;70.80
41628;DHT22;27321;50.816;6.054;2022-10-16T15:05:56;19.00;71.10
41628;DHT22;27321;50.816;6.054;2022-10-16T15:09:00;19.00;71.70
41628;DHT22;27321;50.816;6.054;2022-10-16T15:12:04;18.90;72.10
41628;DHT22;27321;50.816;6.054;2022-10-16T15:21:56;18.80;72.00
41628;DHT22;27321;50.816;6.054;2022-10-16T15:24:58;18.80;72.20
41628;DHT22;27321;50.816;6.054;2022-10-16T15:28:00;18.80;72.40
41628;DHT22;27321;50.816;6.054;2022-10-16T15:31:03;18.80;72.60
41628;DHT22;27321;50.816;6.054;2022-10-16T15:34:05;18.80;72.80
41628;DHT22;27321;50.816;6.054;2022-10-16T15:37:08;18.80;72.80
41628;DHT22;27321;50.816;6.054;2022-10-16T15:40:12;18.70;72.90
41628;DHT22;27321;50.816;6.054;2022-10-16T15:43:14;18.70;73.00
41628;DHT22;27321;50.816;6.054;2022-10-16T15:46:17;18.60;73.20
41628;DHT22;27321;50.816;6.054;2022-10-16T15:49:20;18.60;73.50
41628;DHT22;27321;50.816;6.054;2022-10-16T15:52:21;18.60;73.90
41628;DHT22;27321;50.816;6.054;2022-10-16T15:55:23;18.60;74.00
41628;DHT22;27321;50.816;6.054;2022-10-16T15:58:24;18.50;73.70
41628;DHT22;27321;50.816;6.054;2022-10-16T16:01:25;18.60;73.90
41628;DHT22;27321;50.816;6.054;2022-10-16T16:04:29;18.50;73.70
41628;DHT22;27321;50.816;6.054;2022-10-16T16:07:34;18.50;73.90
41628;DHT22;27321;50.816;6.054;2022-10-16T16:10:37;18.50;74.10
41628;DHT22;27321;50.816;6.054;2022-10-16T16:13:40;18.50;74.40
41628;DHT22;27321;50.816;6.054;2022-10-16T16:16:46;18.50;74.60
41628;DHT22;27321;50.816;6.054;2022-10-16T16:19:48;18.40;74.90
41628;DHT22;27321;50.816;6.054;2022-10-16T16:23:14;18.40;75.00
41628;DHT22;27321;50.816;6.054;2022-10-16T16:26:22;18.30;75.20
41628;DHT22;27321;50.816;6.054;2022-10-16T16:29:27;18.30;75.40
41628;DHT22;27321;50.816;6.054;2022-10-16T16:32:28;18.20;75.60
41628;DHT22;27321;50.816;6.054;2022-10-16T16:35:29;18.20;75.80
41628;DHT22;27321;50.816;6.054;2022-10-16T16:38:31;18.10;75.90
41628;DHT22;27321;50.816;6.054;2022-10-16T16:41:32;18.10;76.10
41628;DHT22;27321;50.816;6.054;2022-10-16T16:44:33;18.10;76.30
41628;DHT22;27321;50.816;6.054;2022-10-16T16:47:36;18.10;76.40
41628;DHT22;27321;50.816;6.054;2022-10-16T16:50:39;18.10;76.40
41628;DHT22;27321;50.816;6.054;2022-10-16T16:53:41;18.00;76.50
41628;DHT22;27321;50.816;6.054;2022-10-16T16:56:43;18.00;76.50
41628;DHT22;27321;50.816;6.054;2022-10-16T16:59:44;18.00;76.50
41628;DHT22;27321;50.816;6.054;2022-10-16T17:02:48;18.00;76.50
41628;DHT22;27321;50.816;6.054;2022-10-16T17:05:57;17.90;76.70
41628;DHT22;27321;50.816;6.054;2022-10-16T17:09:00;18.00;76.40
41628;DHT22;27321;50.816;6.054;2022-10-16T17:12:03;18.00;76.40
41628;DHT22;27321;50.816;6.054;2022-10-16T17:15:04;18.00;76.50
41628;DHT22;27321;50.816;6.054;2022-10-16T17:18:05;17.90;76.70
41628;DHT22;27321;50.816;6.054;2022-10-16T17:21:08;18.00;77.00
41628;DHT22;27321;50.816;6.054;2022-10-16T17:24:09;17.90;77.10
41628;DHT22;27321;50.816;6.054;2022-10-16T17:27:10;17.90;77.20
41628;DHT22;27321;50.816;6.054;2022-10-16T17:30:12;17.90;77.20
41628;DHT22;27321;50.816;6.054;2022-10-16T17:33:12;17.90;77.40
41628;DHT22;27321;50.816;6.054;2022-10-16T17:36:14;17.80;77.50
41628;DHT22;27321;50.816;6.054;2022-10-16T17:39:15;17.90;77.50
41628;DHT22;27321;50.816;6.054;2022-10-16T17:42:19;17.80;77.70
41628;DHT22;27321;50.816;6.054;2022-10-16T17:45:21;17.80;77.70
41628;DHT22;27321;50.816;6.054;2022-10-16T17:48:22;17.80;77.80
41628;DHT22;27321;50.816;6.054;2022-10-16T17:51:25;17.80;77.80
41628;DHT22;27321;50.816;6.054;2022-10-16T17:54:28;17.80;77.80
41628;DHT22;27321;50.816;6.054;2022-10-16T17:57:29;17.80;77.80
41628;DHT22;27321;50.816;6.054;2022-10-16T18:00:30;17.80;77.70
41628;DHT22;27321;50.816;6.054;2022-10-16T18:03:31;17.80;77.60
41628;DHT22;27321;50.816;6.054;2022-10-16T18:06:32;17.80;77.50
41628;DHT22;27321;50.816;6.054;2022-10-16T18:09:33;17.80;77.40
41628;DHT22;27321;50.816;6.054;2022-10-16T18:12:34;17.80;77.50
41628;DHT22;27321;50.816;6.054;2022-10-16T18:15:35;17.80;77.50
41628;DHT22;27321;50.816;6.054;2022-10-16T18:18:37;17.80;77.60
41628;DHT22;27321;50.816;6.054;2022-10-16T18:21:39;17.80;77.60
41628;DHT22;27321;50.816;6.054;2022-10-16T18:24:40;17.80;77.60
41628;DHT22;27321;50.816;6.054;2022-10-16T18:27:41;17.80;77.70
41628;DHT22;27321;50.816;6.054;2022-10-16T18:30:42;17.80;77.70
41628;DHT22;27321;50.816;6.054;2022-10-16T18:33:43;17.80;77.70
41628;DHT22;27321;50.816;6.054;2022-10-16T18:36:48;17.80;77.80
41628;DHT22;27321;50.816;6.054;2022-10-16T18:39:49;17.80;77.90
41628;DHT22;27321;50.816;6.054;2022-10-16T18:42:50;17.80;77.80
41628;DHT22;27321;50.816;6.054;2022-10-16T18:46:02;17.80;77.80
41628;DHT22;27321;50.816;6.054;2022-10-16T18:49:05;17.80;77.60
41628;DHT22;27321;50.816;6.054;2022-10-16T18:52:06;17.80;77.60
41628;DHT22;27321;50.816;6.054;2022-10-16T18:55:08;17.80;77.80
41628;DHT22;27321;50.816;6.054;2022-10-16T18:58:09;17.80;77.80
41628;DHT22;27321;50.816;6.054;2022-10-16T19:01:11;17.70;78.00
41628;DHT22;27321;50.816;6.054;2022-10-16T19:04:14;17.60;78.30
41628;DHT22;27321;50.816;6.054;2022-10-16T19:07:16;17.60;78.50
41628;DHT22;27321;50.816;6.054;2022-10-16T19:10:17;17.60;78.50
41628;DHT22;27321;50.816;6.054;2022-10-16T19:13:18;17.60;78.40
41628;DHT22;27321;50.816;6.054;2022-10-16T19:16:21;17.60;78.50
41628;DHT22;27321;50.816;6.054;2022-10-16T19:19:27;17.60;78.70
41628;DHT22;27321;50.816;6.054;2022-10-16T19:23:31;17.60;78.80
41628;DHT22;27321;50.816;6.054;2022-10-16T19:27:13;17.50;78.80
41628;DHT22;27321;50.816;6.054;2022-10-16T19:31:05;17.50;78.80
41628;DHT22;27321;50.816;6.054;2022-10-16T19:40:33;17.30;79.10
41628;DHT22;27321;50.816;6.054;2022-10-16T19:43:52;17.30;79.20
41628;DHT22;27321;50.816;6.054;2022-10-16T19:47:04;17.20;79.50
41628;DHT22;27321;50.816;6.054;2022-10-16T19:50:23;17.20;79.50
41628;DHT22;27321;50.816;6.054;2022-10-16T19:53:24;17.10;79.70
41628;DHT22;27321;50.816;6.054;2022-10-16T19:56:28;17.10;79.70
41628;DHT22;27321;50.816;6.054;2022-10-16T19:59:31;17.10;79.70
41628;DHT22;27321;50.816;6.054;2022-10-16T20:02:32;17.10;79.60
41628;DHT22;27321;50.816;6.054;2022-10-16T20:05:33;17.00;79.70
41628;DHT22;27321;50.816;6.054;2022-10-16T20:08:35;17.00;79.60
41628;DHT22;27321;50.816;6.054;2022-10-16T20:11:37;17.00;79.80
41628;DHT22;27321;50.816;6.054;2022-10-16T20:14:38;17.00;79.50
41628;DHT22;27321;50.816;6.054;2022-10-16T20:17:39;16.90;79.60
41628;DHT22;27321;50.816;6.054;2022-10-16T20:20:42;16.90;79.80
41628;DHT22;27321;50.816;6.054;2022-10-16T20:23:48;16.90;79.90
41628;DHT22;27321;50.816;6.054;2022-10-16T20:26:50;16.80;79.70
41628;DHT22;27321;50.816;6.054;2022-10-16T20:29:52;16.80;80.00
41628;DHT22;27321;50.816;6.054;2022-10-16T20:32:52;16.80;80.10
41628;DHT22;27321;50.816;6.054;2022-10-16T20:35:56;16.70;80.00
41628;DHT22;27321;50.816;6.054;2022-10-16T20:38:57;16.70;80.00
41628;DHT22;27321;50.816;6.054;2022-10-16T20:41:58;16.70;80.20
41628;DHT22;27321;50.816;6.054;2022-10-16T20:44:59;16.60;80.40
41628;DHT22;27321;50.816;6.054;2022-10-16T20:48:00;16.60;80.20
41628;DHT22;27321;50.816;6.054;2022-10-16T20:54:21;16.60;80.20
41628;DHT22;27321;50.816;6.054;2022-10-16T20:57:22;16.60;80.20
41628;DHT22;27321;50.816;6.054;2022-10-16T21:00:24;16.60;80.70
41628;DHT22;27321;50.816;6.054;2022-10-16T21:03:25;16.60;80.90
41628;DHT22;27321;50.816;6.054;2022-10-16T21:06:26;16.60;80.90
41628;DHT22;27321;50.816;6.054;2022-10-16T21:09:27;16.60;80.90
41628;DHT22;27321;50.816;6.054;2022-10-16T21:12:28;16.60;81.10
41628;DHT22;27321;50.816;6.054;2022-10-16T21:15:29;16.70;81.10
41628;DHT22;27321;50.816;6.054;2022-10-16T21:18:30;16.70;81.20
41628;DHT22;27321;50.816;6.054;2022-10-16T21:21:33;16.70;81.20
41628;DHT22;27321;50.816;6.054;2022-10-16T21:24:35;16.70;81.00
41628;DHT22;27321;50.816;6.054;2022-10-16T21:27:40;16.70;81.00
41628;DHT22;27321;50.816;6.054;2022-10-16T21:30:42;16.70;80.70
41628;DHT22;27321;50.816;6.054;2022-10-16T21:33:44;16.60;80.80
41628;DHT22;27321;50.816;6.054;2022-10-16T21:36:46;16.60;81.00